Palmer Park, Maryland
Current Conditions -  °F | °C
As of 7:15 AM on Monday 26 Jan 2015 (Local Time) from KCGS Reporting Station
Overcast Overcast  
Wind Chill: 26°   Ceiling: 1200
Heat Index: 32°   Visibility: 4mi
Dew Point: 32°   Wind: 7mph
Humidity: 100%   Direction: 50°NE
Pressure: 29.83"   Gusts: NA
Location:  38.9183°N, 76.8721°W
Report Text: KCGS 261215Z AUTO 05006KT 4SM SCT009 BKN012 OVC024 00/00 A2983 RMK AO1
Loading
Personal Weather Stations






























Interactive Weather Map New forecast layout! Learn more

10-Day Weather Forecast

Advertisements
Track Severe Weather on mobile